Ivan Gyomber

Recruteur en chef - Slovan Bratislava
25 Nov 2027
Jeudi
Processus

Personnalité

Adaptabilité (12) Ambition (11) Controverse (5) Loyauté (7) Pression (10) Professionnalisme (4) Sportivité (8) Tempérament (13)

Profil

Style d'entraînement Démocratique
Diplôme Continental Pro
Détermination 9
Gestion des joueurs 4
Motivation 11
Discipline 10
Satisfaction professionnelle
99%
Fatigue
0%
Rôle Recruteur en chef
Salaire 62.3K p/s
Contrat 14.03.2029

Performance

Comportement Bon
Efficacité de l'entraînement
39%
Développement des joueurs
40%
Prévention des blessures
40%
Mise en place tactique
35%

Événements récents

A participé à une réunion de recrutement maintenant
A recommandé une cible de transfert maintenant
A recommandé une cible de transfert maintenant
A participé à une réunion de recrutement maintenant
A évalué un joueur 7j
A évalué un joueur 7j
A évalué un joueur 7j
A évalué un joueur 7j

Suivi en cours

168
Joueur Club Statut Capacité Confiance Observé Dernière observation Dernier vote
Santiago Núñez Estudiantes Actif 128 / 139 40% 2 21.11.2027 -
Emanuel Mammana Vélez Actif 131 / 144 40% 3 21.11.2027 -
Bruno Leyes Godoy Cruz Actif 114 / 131 40% 2 20.11.2027 -
César Pérez Defensa y Justicia Actif 121 / 124 40% 3 19.11.2027 -
Edoardo Bove Watford Actif 135 / 128 40% 1 19.11.2027 -
Francisco Álvarez Argentinos Juniors Actif 128 / 137 40% 2 17.11.2027 -
Felipe Peña Biafore Lanús Actif 127 / 118 40% 3 17.11.2027 -
Vicente Poggi Godoy Cruz Actif 139 / 116 40% 3 16.11.2027 -
Matheus Thuler Vissel Kobe Actif 123 / 138 40% 2 15.11.2027 -
Lucas Souto Defensa y Justicia Actif 117 / 120 40% 3 14.11.2027 -
Rubens Dinamo Moscow Actif 137 / 125 40% 5 11.11.2027 -
David Ayala Inter Miami CF Actif 116 / 131 40% 2 11.11.2027 -
Sasha Marcich Lanús Actif 139 / 112 40% 2 10.11.2027 -
Nicolás Tripichio San Lorenzo Actif 115 / 127 40% 2 07.11.2027 -
Elías Báez Atlanta United FC Actif 129 / 124 40% 2 06.11.2027 -
Adrián Sánchez Belgrano Actif 111 / 138 40% 2 05.11.2027 -
Bobby Thomas Coventry City Actif 130 / 137 40% 1 05.11.2027 -
Santiago González Tigre Actif 115 / 115 40% 1 03.11.2027 -
Gonzalo Pérez Lanús Actif 111 / 114 40% 2 02.11.2027 -
Guillermo Enrique Huracán Actif 122 / 113 40% 1 29.10.2027 -
Leonardo Borja La Equidad Actif 147 / 134 40% 1 29.10.2027 -
Lucas Carrizo Newell's Old Boys Actif 139 / 112 40% 2 28.10.2027 -
Ignacio Perruzzi San Lorenzo Actif 138 / 118 40% 1 28.10.2027 -
Rodrigo Herrera Newell's Old Boys Actif 137 / 125 40% 2 27.10.2027 -
Daniel González Universidad Catolica Actif 108 / 109 40% 1 26.10.2027 -
Manuel Guillén Argentinos Juniors Actif 118 / 127 40% 1 26.10.2027 -
Ezequiel Cannavo Defensa y Justicia Actif 142 / 127 40% 2 21.10.2027 -
Tomás Silva Platense Actif 118 / 113 40% 1 21.10.2027 -
Bryan Ramírez FC Cincinnati Actif 118 / 128 40% 2 18.10.2027 -
Matías Pérez Racing Club Actif 115 / 130 40% 2 18.10.2027 -
Gonzalo Abrego Godoy Cruz Actif 116 / 129 40% 1 17.10.2027 -
Juan Infante Atlético Tucumán Actif 112 / 126 40% 1 17.10.2027 -
Gonzalo Montiel River Plate Actif 129 / 144 40% 2 14.10.2027 -
Martín Garay Tigre Actif 118 / 109 40% 2 14.10.2027 -
Leandro Lozano Boca Juniors Actif 114 / 125 40% 1 11.10.2027 -
Rodrigo González Aldosivi Actif 113 / 133 40% 2 09.10.2027 -
Mateo Mendoza Godoy Cruz Actif 127 / 131 40% 1 09.10.2027 -
Ignacio Rodríguez Racing Club Actif 113 / 126 40% 3 07.10.2027 -
Juan Saborido Platense Actif 115 / 122 40% 1 07.10.2027 -
Emanuel Coronel Rosario Central Actif 140 / 135 40% 1 02.10.2027 -
Manuel Ugarte Portsmouth Actif 142 / 142 40% 1 27.09.2027 -
Martín Ortega Newell's Old Boys Actif 116 / 117 40% 1 26.09.2027 -
Oscar Salomón Newell's Old Boys Actif 128 / 114 40% 1 24.09.2027 -
Franco Ibarra Rosario Central Actif 144 / 118 40% 1 24.09.2027 -
Agustín Cardozo Lanús Actif 116 / 111 40% 2 18.09.2027 -
Federico Pereira Estudiantes Actif 126 / 153 40% 2 11.09.2027 -
Damián Fernández Defensa y Justicia Actif 121 / 113 40% 1 09.09.2027 -
Koffi Kouao Neftchi Actif 112 / 131 40% 1 06.09.2027 -
Hugo Rincón Athletic Bilbao Actif 136 / 142 40% 1 30.08.2027 -
Adam Gnezda Čerin Al Wahda Perdu 144 / 127 40% 1 30.08.2027 -
Martin Mikovič Spartak Trnava Perdu 114 / 109 62% 1 19.07.2027 -
Miroslav Káčer MSK Zilina Actif 122 / 121 62% 1 05.07.2027 Approuver
João Victor CSKA Moscow Actif 125 / 132 40% 1 26.06.2027 -
Andreas Gruber DAC Dunajska Streda Perdu 118 / 118 67% 1 01.06.2027 -
Shota Shekiladze Akhmat Grozny Négociation 110 / 110 66% 1 01.06.2027 Approuver
Christian Krasnodar Actif 132 / 133 66% 1 01.06.2027 Approuver
Bitello SC Freiburg Actif 135 / 135 68% 1 01.06.2027 Approuver
Ethan Laird Birmingham Actif 124 / 127 40% 1 01.06.2027 -
Franculino Crystal Palace Actif 137 / 145 40% 1 31.05.2027 -
Nicolò Savona Nottingham Forest Actif 135 / 135 40% 2 30.05.2027 -
Finn Jeltsch VfB Stuttgart Actif 143 / 144 40% 5 28.05.2027 -
Hamad Šaćirović Novi Pazar Actif 79 / 102 40% 1 28.05.2027 -
Tomasz Walczak MFK Michalovce Actif 92 / 98 40% 2 27.05.2027 -
Rhys Chadwick Leyton Orient Actif 95 / 101 40% 1 25.05.2027 -
Harvey White Stevenage Actif 123 / 113 40% 4 22.05.2027 -
Christ Inao Oulaï Fiorentina Actif 129 / 141 40% 3 21.05.2027 -
Baba N'Diaye Chelyabinsk Actif 77 / 88 40% 1 21.05.2027 -
Simone Kosijer Triestina Actif 99 / 99 40% 2 20.05.2027 -
Ezra Mayers West Ham United Actif 126 / 117 40% 1 20.05.2027 -
Yussif Saidu Zaragoza Actif 126 / 130 40% 4 16.05.2027 -
Weverson Gil Vicente Actif 120 / 111 40% 3 15.05.2027 -
Edison Gruezo Leon Actif 111 / 122 40% 1 15.05.2027 -
Rayan Bournemouth Actif 140 / 139 40% 1 15.05.2027 -
Roberto Fernández Lokomotiv Moscow Actif 123 / 119 40% 3 14.05.2027 -
Matías Gómez Granada Actif 110 / 115 40% 2 12.05.2027 -
Ricky Atletico Venezuela Actif 108 / 109 40% 1 12.05.2027 -
Markus Jensen Nacional Actif 99 / 111 40% 1 12.05.2027 -
Daniel Kelly Oxford United Actif 103 / 113 40% 1 10.05.2027 -
Max Conway Bolton Wanderers Actif 125 / 121 40% 2 09.05.2027 -
Mattia Viti Sampdoria Actif 131 / 141 40% 4 06.05.2027 -
Gonçalo Oliveira Benfica Actif 111 / 124 40% 2 06.05.2027 -
Alexandro Maidana Talleres Actif 115 / 122 40% 1 06.05.2027 -
Juan Cáceres Dinamo Moscow Actif 132 / 125 40% 2 04.05.2027 -
Tsvetoslav Marinov Spartak 1918 Actif 92 / 108 40% 2 04.05.2027 -
Maxim Mukhin Rostov Actif 123 / 113 40% 1 04.05.2027 -
Alexandr Siljanov Lokomotiv Moscow Perdu 130 / 130 40% 3 01.05.2027 -
Hassan Beja AFC Leopards Actif 88 / 85 40% 2 01.05.2027 -
Noah Mokhtari Stade Brestois Actif 99 / 91 40% 1 28.04.2027 -
Vasilije Novičić IMT Actif 97 / 99 40% 2 27.04.2027 -
Daniel Costa Sporting CP Actif 95 / 99 40% 1 25.04.2027 -
Víctor Guzmán Sporting CP Actif 88 / 99 40% 1 22.04.2027 -
Luca Maiorano Nacional Actif 96 / 95 40% 1 22.04.2027 -
Anestis Mythou PAOK Actif 102 / 94 40% 1 21.04.2027 -
Dayann Methalie Aston Villa Actif 139 / 140 40% 1 18.04.2027 -
Marat Bokoev Akron Actif 111 / 110 40% 3 15.04.2027 -
Alexandr Chernikov Krasnodar Actif 133 / 132 40% 4 14.04.2027 -
Finley McAllister Grimsby Town Actif 85 / 97 40% 1 14.04.2027 -
Ryan Alebiosu Blackburn Rovers Actif 118 / 132 40% 1 12.04.2027 -
Darryl Bakola Padova Actif 104 / 115 40% 1 11.04.2027 -
Thomas Waddingham Portsmouth Actif 101 / 104 40% 1 10.04.2027 -
Facundo Bernal Betis Actif 128 / 129 40% 1 08.04.2027 -
Kazunari Kita Real Sociedad Actif 100 / 97 40% 1 06.04.2027 -
Sabil Hansen Randers Actif 106 / 117 40% 1 06.04.2027 -
Zane Albarus Cambridge United Actif 101 / 108 40% 1 05.04.2027 -
Marco Bellich Juve Stabia Actif 116 / 117 40% 1 04.04.2027 -
Ilja Vakhania Krasnodar Actif 116 / 127 40% 3 02.04.2027 -
Danil Glebov Dinamo Moscow Actif 139 / 124 40% 4 31.03.2027 -
Robert Mejía Orenburg Actif 113 / 118 40% 1 30.03.2027 -
Josh Doig Sassuolo Actif 142 / 129 40% 2 28.03.2027 -
Doğucan Haspolat Westerlo Actif 117 / 126 40% 2 25.03.2027 -
Caspar Jander Southampton Actif 134 / 139 40% 1 24.03.2027 -
Arsen Adamov Akhmat Grozny Actif 118 / 118 40% 4 23.03.2027 -
Jofre Torrents Ajax Actif 118 / 126 40% 2 19.03.2027 -
Michel Mboula FC Metz Actif 123 / 116 40% 1 15.03.2027 -
Andrey Langovich Rostov Actif 114 / 117 40% 1 12.03.2027 -
Ugochukwu Iwu Rubin Actif 118 / 117 40% 1 09.03.2027 -
Trai Hume Sunderland Actif 127 / 137 40% 1 06.03.2027 -
Maksym Khiminets Podbrezova Actif 85 / 75 40% 1 06.03.2027 -
Anderson Arroyo Rubin Actif 110 / 121 40% 3 27.02.2027 -
Shunsuke Saito Westerlo Actif 97 / 105 40% 1 25.02.2027 -
Krešimir Radoš HNK Gorica Actif 104 / 104 40% 1 25.02.2027 -
Jon Eceizabarrena Real Sociedad Actif 99 / 104 40% 3 15.02.2027 -
Agustín Fernández NK Zavrc Actif 97 / 86 40% 1 13.02.2027 -
Veldin Hodža Rubin Actif 129 / 127 40% 1 13.02.2027 -
Jakob Kiilerich Zulte Waregem Actif 110 / 111 40% 1 13.02.2027 -
Gia Nadareishvili AS Trencin Actif 113 / 122 40% 3 12.02.2027 -
Nathan Gassama Baltika Actif 108 / 114 40% 3 09.02.2027 -
Victor Parada Spartak Moscow Actif 126 / 118 40% 5 07.02.2027 -
Tomás Ribeiro Cultural Leonesa Actif 128 / 113 40% 1 06.02.2027 -
Martim Cunha Porto Actif 106 / 97 40% 1 04.02.2027 -
Ruslan Cherviakov Spartak Kostroma Actif 102 / 99 40% 2 02.02.2027 -
Yury Gorshkov Krylya Sovetov Actif 125 / 117 40% 1 01.02.2027 -
Maxim Radchenko Rostov Actif 78 / 92 40% 1 30.01.2027 -
Jhon Palacios Orenburg Actif 109 / 109 40% 1 29.01.2027 -
Nevot Ratner Maccabi Haifa Actif 91 / 96 40% 1 26.01.2027 -
Amaury Morales Pumas UNAM Actif 102 / 122 40% 1 22.01.2027 -
Daniil Kondakov Zenit Actif 87 / 83 40% 1 21.01.2027 -
Tomás Peixoto Porto Actif 80 / 83 40% 1 19.01.2027 -
Lechi Sadulaev Akhmat Grozny Actif 116 / 115 40% 1 10.01.2027 -
Ali Youssef Apollon Actif 123 / 114 40% 1 10.01.2027 -
Filip Mielke Podbrezova Actif 104 / 111 40% 1 02.01.2027 -
Reda Khadra Qarabag Actif 128 / 131 40% 4 31.12.2026 -
Ronaldo Vásquez Sumgayit Actif 111 / 109 40% 3 29.12.2026 -
Djed Spence Inter Actif 151 / 142 40% 1 29.12.2026 -
Marko Brest Olimpija Ljubljana Actif 114 / 124 40% 1 26.12.2026 -
Aidomo Emakhu Oxford United Actif 119 / 114 40% 2 23.12.2026 -
Houssem Mrezigue Dinamo Makhachkala Actif 125 / 113 40% 1 20.12.2026 -
Juan Manuel Boselli Krasnodar Actif 117 / 127 40% 3 18.12.2026 -
João Muniz Sporting CP Actif 109 / 113 40% 1 17.12.2026 -
Alasana Yirajang AS Trencin Actif 111 / 119 40% 1 12.12.2026 -
Taofeek Ismaheel Qarabag Actif 102 / 108 40% 2 08.12.2026 -
Jonás Luna Santa Clara Actif 109 / 124 40% 1 01.12.2026 -
Niklas Vesterlund Utrecht Actif 117 / 108 40% 1 30.11.2026 -
Ammar Ramadan DAC Dunajska Streda Actif 124 / 133 40% 1 28.11.2026 Plus d'infos
Romano Schmid Frosinone Actif 133 / 131 40% 1 26.11.2026 -
Andrei Cordea CFR Cluj Actif 128 / 130 40% 2 25.11.2026 -
Valentín Barco Chelsea Actif 144 / 140 40% 1 21.11.2026 -
Caolan Boyd-Munce Wycombe Wanderers Actif 111 / 126 40% 1 21.11.2026 -
Denzel Jubitana Neftchi Actif 133 / 108 40% 2 15.11.2026 -
Daniel Kyerewaa Reading Actif 117 / 112 40% 1 15.11.2026 -
Nüraly Älip Zenit Actif 117 / 126 40% 1 14.11.2026 -
Jack Currie Oxford United Actif 115 / 125 40% 2 13.11.2026 -
Alexey Mironov Rostov Actif 126 / 115 40% 1 07.11.2026 -
Uche Jaguar Kwara United Actif 103 / 111 40% 1 05.10.2026 -
Santiago Espíndola River Plate Actif 91 / 124 40% 1 03.09.2026 -
Filip Lissah Swansea City Actif 109 / 112 40% 1 31.08.2026 -
Gonzalo Escudero Racing Club Actif 108 / 123 40% 1 10.08.2026 -
Jeifer Nontoa Banfield Actif 88 / 74 40% 1 02.08.2026 -